createdAt,value
2022-10-18T00:01:00.179Z,8.20
2022-10-18T00:03:27.307Z,8.33
2022-10-18T00:05:54.430Z,8.83
2022-10-18T00:08:21.679Z,9.87
2022-10-18T00:10:48.932Z,8.70
2022-10-18T00:13:16.202Z,7.87
2022-10-18T00:15:50.349Z,8.63
2022-10-18T00:18:17.509Z,8.80
2022-10-18T00:20:44.608Z,11.43
2022-10-18T00:23:11.913Z,10.17
2022-10-18T00:25:39.104Z,6.67
2022-10-18T00:28:06.243Z,9.23
2022-10-18T00:30:33.385Z,9.50
2022-10-18T00:33:00.540Z,7.63
2022-10-18T00:35:27.741Z,8.87
2022-10-18T00:37:54.818Z,7.87
2022-10-18T00:40:21.923Z,9.13
2022-10-18T00:42:49.063Z,8.30
2022-10-18T00:45:25.304Z,8.47
2022-10-18T00:48:02.429Z,7.10
2022-10-18T00:50:30.811Z,9.20
2022-10-18T00:52:58.721Z,10.37
2022-10-18T00:55:26.414Z,9.67
2022-10-18T01:00:25.734Z,8.40
2022-10-18T01:02:52.875Z,8.13
2022-10-18T01:05:20.206Z,11.30
2022-10-18T01:07:54.639Z,10.20
2022-10-18T01:10:40.124Z,9.47
2022-10-18T01:13:26.119Z,10.30
2022-10-18T01:18:42.280Z,10.00
2022-10-18T01:21:35.733Z,8.77
2022-10-18T01:24:02.881Z,9.67
2022-10-18T01:26:39.292Z,9.93
2022-10-18T01:29:14.248Z,9.90
2022-10-18T01:31:46.212Z,9.93
2022-10-18T01:34:13.543Z,9.20
2022-10-18T01:36:45.160Z,9.13
2022-10-18T01:39:13.452Z,9.20
2022-10-18T01:41:40.754Z,17.13
2022-10-18T01:44:08.327Z,9.77
2022-10-18T01:46:35.444Z,9.57
2022-10-18T01:49:02.711Z,10.20
2022-10-18T01:51:30.511Z,9.00
2022-10-18T01:53:57.653Z,8.87
2022-10-18T01:56:43.696Z,9.33
2022-10-18T01:59:13.800Z,8.60
2022-10-18T02:01:55.719Z,10.17
2022-10-18T02:04:30.064Z,8.70
2022-10-18T02:06:59.183Z,9.43
2022-10-18T02:09:31.033Z,10.67
2022-10-18T02:11:58.140Z,9.97
2022-10-18T02:14:25.313Z,9.63
2022-10-18T02:16:55.886Z,10.40
2022-10-18T02:19:26.967Z,10.40
2022-10-18T02:21:54.476Z,11.30
2022-10-18T02:24:21.676Z,9.93
2022-10-18T02:26:48.767Z,9.10
2022-10-18T02:29:15.837Z,9.20
2022-10-18T02:31:53.937Z,10.57
2022-10-18T02:34:21.130Z,9.70
2022-10-18T02:36:52.435Z,8.97
2022-10-18T02:39:38.670Z,11.17
2022-10-18T02:42:09.269Z,9.10
2022-10-18T02:44:36.545Z,9.80
2022-10-18T02:47:04.210Z,12.10
2022-10-18T02:49:31.344Z,9.83
2022-10-18T02:51:58.463Z,10.27
2022-10-18T02:54:25.613Z,9.13
2022-10-18T02:56:52.686Z,10.07
2022-10-18T02:59:19.799Z,11.23
2022-10-18T03:01:46.998Z,9.60
2022-10-18T03:04:14.219Z,9.30
2022-10-18T03:06:41.436Z,9.33
2022-10-18T03:09:08.590Z,8.80
2022-10-18T03:11:35.709Z,9.60
2022-10-18T03:14:02.906Z,9.40
2022-10-18T03:16:30.195Z,9.67
2022-10-18T03:18:57.321Z,9.53
2022-10-18T03:21:24.444Z,8.80
2022-10-18T03:23:51.598Z,8.67
2022-10-18T03:26:18.696Z,7.93
2022-10-18T03:28:45.858Z,8.83
2022-10-18T03:31:13.082Z,9.47
2022-10-18T03:33:40.292Z,8.17
2022-10-18T03:36:07.435Z,9.03
2022-10-18T03:38:34.775Z,7.77
2022-10-18T03:41:02.025Z,8.43
2022-10-18T03:43:29.233Z,7.63
2022-10-18T03:45:56.376Z,7.90
2022-10-18T03:48:23.544Z,8.43
2022-10-18T03:50:50.686Z,9.67
2022-10-18T03:53:17.826Z,8.63
2022-10-18T03:55:44.966Z,8.47
2022-10-18T03:58:12.171Z,8.20
2022-10-18T04:00:39.263Z,9.07
2022-10-18T04:03:06.420Z,7.70
2022-10-18T04:05:34.549Z,8.93
2022-10-18T04:08:01.708Z,11.20
2022-10-18T04:10:28.808Z,8.20
2022-10-18T04:12:56.018Z,8.13
2022-10-18T04:15:23.268Z,9.10
2022-10-18T04:17:50.480Z,9.23
2022-10-18T04:20:18.032Z,8.13
2022-10-18T04:22:45.345Z,7.70
2022-10-18T04:25:12.602Z,8.00
2022-10-18T04:27:39.793Z,8.97
2022-10-18T04:30:07.462Z,10.27
2022-10-18T04:32:35.467Z,9.43
2022-10-18T04:35:06.041Z,9.63
2022-10-18T04:37:33.919Z,11.80
2022-10-18T04:40:01.274Z,9.43
2022-10-18T04:42:28.396Z,9.30
2022-10-18T04:44:55.625Z,9.07
2022-10-18T04:47:22.940Z,10.17
2022-10-18T04:49:50.121Z,8.33
2022-10-18T04:52:17.282Z,9.47
2022-10-18T04:54:44.399Z,7.77
2022-10-18T04:57:11.589Z,9.67
2022-10-18T04:59:38.715Z,11.13
2022-10-18T05:02:05.941Z,8.63
2022-10-18T05:04:33.242Z,8.47
2022-10-18T05:07:00.418Z,8.10
2022-10-18T05:09:27.561Z,8.17
2022-10-18T05:11:54.786Z,8.20
2022-10-18T05:14:22.032Z,7.47
2022-10-18T05:16:49.245Z,7.47
2022-10-18T05:19:16.455Z,7.07
2022-10-18T05:21:43.772Z,8.37
2022-10-18T05:24:12.272Z,7.50
2022-10-18T05:26:39.660Z,7.57
2022-10-18T05:29:07.042Z,8.00
2022-10-18T05:31:34.307Z,9.30
2022-10-18T05:34:02.076Z,9.90
2022-10-18T05:36:29.273Z,8.13
2022-10-18T05:38:59.653Z,8.07
2022-10-18T05:41:29.790Z,8.40
2022-10-18T05:43:57.034Z,8.20
2022-10-18T05:46:24.216Z,7.20
2022-10-18T05:48:51.740Z,8.27
2022-10-18T05:51:19.246Z,7.77
2022-10-18T05:53:46.477Z,7.80
2022-10-18T05:56:14.440Z,8.40
2022-10-18T05:58:42.102Z,8.83
2022-10-18T06:01:10.165Z,8.93
2022-10-18T06:03:37.400Z,8.03
2022-10-18T06:06:05.298Z,12.17
2022-10-18T06:08:32.490Z,8.57
2022-10-18T06:10:59.688Z,10.93
2022-10-18T06:13:28.210Z,9.17
2022-10-18T06:16:00.506Z,8.00
2022-10-18T06:18:27.810Z,11.93
2022-10-18T06:21:01.097Z,7.63
2022-10-18T06:23:28.522Z,8.63
2022-10-18T06:25:59.305Z,9.27
2022-10-18T06:28:26.879Z,7.80
2022-10-18T06:30:54.028Z,8.40
2022-10-18T06:33:21.366Z,7.87
2022-10-18T06:35:55.364Z,11.03
2022-10-18T06:38:22.572Z,9.30
2022-10-18T06:40:49.880Z,8.13
2022-10-18T06:43:21.156Z,8.63
2022-10-18T06:45:48.690Z,8.60
2022-10-18T06:48:16.055Z,7.83
2022-10-18T06:50:43.350Z,9.50
2022-10-18T06:53:10.473Z,9.10
2022-10-18T06:55:37.607Z,9.53
2022-10-18T06:58:04.717Z,8.43
2022-10-18T07:00:31.908Z,8.50
2022-10-18T07:02:59.007Z,12.07
2022-10-18T07:05:26.257Z,13.50
2022-10-18T07:07:56.343Z,10.37
2022-10-18T07:10:24.150Z,14.23
2022-10-18T07:12:53.506Z,8.33
2022-10-18T07:15:24.221Z,10.30
2022-10-18T07:17:51.454Z,7.17
2022-10-18T07:20:18.595Z,9.07
2022-10-18T07:22:45.708Z,10.43
2022-10-18T07:25:12.822Z,11.20
2022-10-18T07:27:40.768Z,23.07
2022-10-18T07:30:08.376Z,8.97
2022-10-18T07:32:35.493Z,8.30
2022-10-18T07:35:04.379Z,11.23
2022-10-18T07:37:31.960Z,9.27
2022-10-18T07:39:59.318Z,9.17
2022-10-18T07:42:31.363Z,7.80
2022-10-18T07:45:13.869Z,6.90
2022-10-18T07:50:45.073Z,7.87
2022-10-18T07:53:12.178Z,8.37
2022-10-18T07:55:39.534Z,8.43
2022-10-18T07:58:06.626Z,9.70
2022-10-18T08:00:33.827Z,10.40
2022-10-18T08:03:00.923Z,8.60
2022-10-18T08:05:28.965Z,8.13
2022-10-18T08:07:56.369Z,7.40
2022-10-18T08:10:24.377Z,9.33
2022-10-18T08:12:51.955Z,8.27
2022-10-18T08:15:20.203Z,11.77
2022-10-18T08:17:47.291Z,9.53
2022-10-18T08:20:29.807Z,18.00
2022-10-18T08:23:00.065Z,55.83
2022-10-18T08:25:27.740Z,39.70
2022-10-18T08:27:54.880Z,20.37
2022-10-18T08:30:23.387Z,10.00
2022-10-18T08:32:50.536Z,10.53
2022-10-18T08:35:17.705Z,10.50
2022-10-18T08:37:45.368Z,16.63
2022-10-18T08:40:15.570Z,10.60
2022-10-18T08:42:54.806Z,10.17
2022-10-18T08:45:37.489Z,13.30
2022-10-18T08:48:08.736Z,8.13
2022-10-18T08:50:36.883Z,8.90
2022-10-18T08:53:14.420Z,9.40
2022-10-18T08:55:52.406Z,8.13
2022-10-18T08:58:23.564Z,11.90
2022-10-18T09:00:57.148Z,8.63
2022-10-18T09:03:24.286Z,9.00
2022-10-18T09:05:51.419Z,7.20
2022-10-18T09:08:18.498Z,7.97
2022-10-18T09:10:50.812Z,9.00
2022-10-18T09:13:37.700Z,7.67
2022-10-18T09:16:05.678Z,6.87
2022-10-18T09:18:32.755Z,7.03
2022-10-18T09:21:20.750Z,6.80
2022-10-18T09:23:49.376Z,8.27
2022-10-18T09:26:16.439Z,6.63
2022-10-18T09:28:52.650Z,6.23
2022-10-18T09:31:20.771Z,6.00
2022-10-18T09:34:14.274Z,5.57
2022-10-18T09:36:41.351Z,6.93
2022-10-18T09:39:15.380Z,5.43
2022-10-18T09:41:48.739Z,5.93
2022-10-18T09:44:33.904Z,6.47
2022-10-18T09:47:02.313Z,5.70
2022-10-18T09:49:30.702Z,6.37
2022-10-18T09:51:57.772Z,6.30
2022-10-18T09:54:24.988Z,5.80
2022-10-18T09:59:29.092Z,5.10
2022-10-18T10:01:56.204Z,5.80
2022-10-18T10:04:23.311Z,5.33
2022-10-18T10:06:53.712Z,4.87
2022-10-18T10:09:47.150Z,7.17
2022-10-18T10:12:26.612Z,5.80
2022-10-18T10:14:53.708Z,5.63
2022-10-18T10:17:25.288Z,5.57
2022-10-18T10:19:57.640Z,5.30
2022-10-18T10:22:28.505Z,5.20
2022-10-18T10:24:55.672Z,5.47
2022-10-18T10:27:33.464Z,5.77
2022-10-18T10:30:06.773Z,4.93
2022-10-18T10:32:45.414Z,5.40
2022-10-18T10:36:00.156Z,5.20
2022-10-18T10:38:28.047Z,5.93
2022-10-18T10:40:55.255Z,5.33
2022-10-18T10:43:37.557Z,5.43
2022-10-18T10:46:15.923Z,6.20
2022-10-18T10:48:47.412Z,5.30
2022-10-18T10:51:15.022Z,4.80
2022-10-18T10:53:47.757Z,6.60
2022-10-18T10:56:17.015Z,4.73
2022-10-18T10:58:44.134Z,5.37
2022-10-18T11:01:27.502Z,6.40
2022-10-18T11:03:56.035Z,3.80
2022-10-18T11:06:39.915Z,4.00
2022-10-18T11:09:10.983Z,6.53
2022-10-18T11:11:40.071Z,5.60
2022-10-18T11:14:25.306Z,3.90
2022-10-18T11:16:53.480Z,3.50
2022-10-18T11:19:30.897Z,8.20
2022-10-18T11:21:58.002Z,3.70
2022-10-18T11:24:25.140Z,3.53
2022-10-18T11:26:53.964Z,5.10
2022-10-18T11:29:36.471Z,5.63
2022-10-18T11:32:03.605Z,3.47
2022-10-18T11:34:44.443Z,3.60
2022-10-18T11:37:28.480Z,3.47
2022-10-18T11:39:57.314Z,3.60
2022-10-18T11:42:43.790Z,4.20
2022-10-18T11:48:05.181Z,10.30
2022-10-18T11:50:41.444Z,5.43
2022-10-18T11:53:23.564Z,8.40
2022-10-18T11:56:09.520Z,3.60
2022-10-18T11:58:39.384Z,4.03
2022-10-18T12:01:18.387Z,5.27
2022-10-18T12:03:51.388Z,4.80
2022-10-18T12:06:22.313Z,3.97
2022-10-18T12:08:54.727Z,4.37
2022-10-18T12:11:23.279Z,8.00
2022-10-18T12:13:50.358Z,3.93
2022-10-18T12:16:17.484Z,6.03
2022-10-18T12:18:56.218Z,5.30
2022-10-18T12:21:25.780Z,4.77
2022-10-18T12:23:57.729Z,3.47
2022-10-18T12:26:25.083Z,4.73
2022-10-18T12:28:58.460Z,5.13
2022-10-18T12:31:27.408Z,3.50
2022-10-18T12:33:56.254Z,5.40
2022-10-18T12:36:23.399Z,4.20
2022-10-18T12:38:51.784Z,4.90
2022-10-18T12:41:34.560Z,3.07
2022-10-18T12:44:17.100Z,3.47
2022-10-18T12:46:50.845Z,4.00
2022-10-18T12:49:19.308Z,4.17
2022-10-18T12:51:52.922Z,7.77
2022-10-18T12:54:22.161Z,4.10
2022-10-18T12:56:50.829Z,4.77
2022-10-18T12:59:17.979Z,10.90
2022-10-18T13:01:51.428Z,4.63
2022-10-18T13:04:27.980Z,4.03
2022-10-18T13:07:18.690Z,6.73
2022-10-18T13:10:08.880Z,3.83
2022-10-18T13:12:58.968Z,4.57
2022-10-18T13:15:35.678Z,3.93
2022-10-18T13:18:18.087Z,4.93
2022-10-18T13:20:47.416Z,3.40
2022-10-18T13:23:23.800Z,5.77
2022-10-18T13:25:50.958Z,4.83
2022-10-18T13:28:37.012Z,3.37
2022-10-18T13:31:09.953Z,4.33
2022-10-18T13:33:38.988Z,8.60
2022-10-18T13:36:07.027Z,4.80
2022-10-18T13:38:34.161Z,4.33
2022-10-18T13:41:04.506Z,4.93
2022-10-18T13:43:52.612Z,8.47
2022-10-18T13:46:26.089Z,5.70
2022-10-18T13:48:53.612Z,8.43
2022-10-18T13:51:38.876Z,4.77
2022-10-18T13:54:18.459Z,4.50
2022-10-18T13:56:49.770Z,4.73
2022-10-18T13:59:20.072Z,6.97
2022-10-18T14:01:53.195Z,5.07
2022-10-18T14:04:40.731Z,5.53
2022-10-18T14:07:08.520Z,5.83
2022-10-18T14:09:44.093Z,5.83
2022-10-18T14:12:26.435Z,6.13
2022-10-18T14:14:53.511Z,5.10
2022-10-18T14:17:32.965Z,7.60
2022-10-18T14:20:15.712Z,6.50
2022-10-18T14:22:54.377Z,6.97
2022-10-18T14:25:22.785Z,6.10
2022-10-18T14:27:53.685Z,6.17
2022-10-18T14:30:22.075Z,6.07
2022-10-18T14:32:49.832Z,6.47
2022-10-18T14:35:32.109Z,10.20
2022-10-18T14:38:00.316Z,6.30
2022-10-18T14:40:40.277Z,5.90
2022-10-18T14:43:11.758Z,5.90
2022-10-18T14:45:39.036Z,5.23
2022-10-18T14:48:07.167Z,5.77
2022-10-18T14:50:34.242Z,5.37
2022-10-18T14:53:05.407Z,7.53
2022-10-18T14:55:33.177Z,4.77
2022-10-18T14:58:00.244Z,5.63
2022-10-18T15:00:30.382Z,4.70
2022-10-18T15:02:57.467Z,5.30
2022-10-18T15:05:25.038Z,5.47
2022-10-18T15:07:52.279Z,4.90
2022-10-18T15:10:23.272Z,9.20
2022-10-18T15:13:08.625Z,7.00
2022-10-18T15:15:36.713Z,4.63
2022-10-18T15:18:05.304Z,6.10
2022-10-18T15:20:33.022Z,7.90
2022-10-18T15:23:19.384Z,4.30
2022-10-18T15:25:46.460Z,4.03
2022-10-18T15:28:32.521Z,5.00
2022-10-18T15:31:01.790Z,7.97
2022-10-18T15:33:33.691Z,4.30
2022-10-18T15:36:11.034Z,3.50
2022-10-18T15:38:38.203Z,3.00
2022-10-18T15:41:24.036Z,3.40
2022-10-18T15:43:51.167Z,3.90
2022-10-18T15:46:32.057Z,6.23
2022-10-18T15:49:13.596Z,3.20
2022-10-18T15:51:50.311Z,4.33
2022-10-18T15:54:20.505Z,3.73
2022-10-18T15:56:47.618Z,3.57
2022-10-18T15:59:24.758Z,3.60
2022-10-18T16:01:51.912Z,5.03
2022-10-18T16:04:24.312Z,5.50
2022-10-18T16:06:51.604Z,5.03
2022-10-18T16:09:19.385Z,4.00
2022-10-18T16:11:47.031Z,4.50
2022-10-18T16:14:14.149Z,7.17
2022-10-18T16:16:41.290Z,3.93
2022-10-18T16:19:08.659Z,3.33
2022-10-18T16:21:36.612Z,4.33
2022-10-18T16:24:03.840Z,3.63
2022-10-18T16:26:31.036Z,8.10
2022-10-18T16:28:58.586Z,17.37
2022-10-18T16:31:26.587Z,15.97
2022-10-18T16:33:53.903Z,7.90
2022-10-18T16:36:21.943Z,4.00
2022-10-18T16:38:49.454Z,3.83
2022-10-18T16:41:16.792Z,4.50
2022-10-18T16:43:44.408Z,5.50
2022-10-18T16:46:13.983Z,4.97
2022-10-18T16:48:41.144Z,4.27
2022-10-18T16:51:09.793Z,3.67
2022-10-18T16:53:36.918Z,4.30
2022-10-18T16:56:04.655Z,4.90
2022-10-18T16:58:32.089Z,5.30
2022-10-18T17:00:59.816Z,4.87
2022-10-18T17:03:28.198Z,5.57
2022-10-18T17:05:56.271Z,5.00
2022-10-18T17:08:24.390Z,5.33
2022-10-18T17:10:52.986Z,5.77
2022-10-18T17:13:20.315Z,6.60
2022-10-18T17:15:47.519Z,7.13
2022-10-18T17:18:16.188Z,26.20
2022-10-18T17:20:43.454Z,6.30
2022-10-18T17:23:10.613Z,7.03
2022-10-18T17:25:46.368Z,6.30
2022-10-18T17:28:25.028Z,7.47
2022-10-18T17:30:52.197Z,6.03
2022-10-18T17:33:19.375Z,6.27
2022-10-18T17:35:46.448Z,6.87
2022-10-18T17:38:13.544Z,5.70
2022-10-18T17:40:43.848Z,6.53
2022-10-18T17:43:13.284Z,5.40
2022-10-18T17:45:47.977Z,5.40
2022-10-18T17:48:15.158Z,4.80
2022-10-18T17:50:42.256Z,5.93
2022-10-18T17:53:09.457Z,4.67
2022-10-18T17:55:36.591Z,5.33
2022-10-18T17:58:03.720Z,4.93
2022-10-18T18:00:30.819Z,4.63
2022-10-18T18:02:58.495Z,4.77
2022-10-18T18:05:25.648Z,10.00
2022-10-18T18:07:52.792Z,7.20
2022-10-18T18:10:19.893Z,8.00
2022-10-18T18:12:47.836Z,7.70
2022-10-18T18:15:15.002Z,6.00
2022-10-18T18:17:58.087Z,5.53
2022-10-18T18:20:25.828Z,5.87
2022-10-18T18:22:52.936Z,7.63
2022-10-18T18:25:20.061Z,6.70
2022-10-18T18:27:47.160Z,7.80
2022-10-18T18:30:15.375Z,7.10
2022-10-18T18:32:42.571Z,6.93
2022-10-18T18:35:09.652Z,6.47
2022-10-18T18:37:37.140Z,9.20
2022-10-18T18:40:04.415Z,7.93
2022-10-18T18:42:31.804Z,7.00
2022-10-18T18:44:59.072Z,9.63
2022-10-18T18:47:27.479Z,7.70
2022-10-18T18:49:54.556Z,6.53
2022-10-18T18:52:21.752Z,5.77
2022-10-18T18:54:48.890Z,5.80
2022-10-18T18:57:15.972Z,6.07
2022-10-18T18:59:43.044Z,5.83
2022-10-18T19:02:10.648Z,6.30
2022-10-18T19:04:37.779Z,5.80
2022-10-18T19:07:04.906Z,5.13
2022-10-18T19:09:32.796Z,7.77
2022-10-18T19:12:00.109Z,6.27
2022-10-18T19:14:28.979Z,6.83
2022-10-18T19:16:59.282Z,8.53
2022-10-18T19:19:27.236Z,6.30
2022-10-18T19:21:55.075Z,6.90
2022-10-18T19:24:23.576Z,6.27
2022-10-18T19:26:50.665Z,7.73
2022-10-18T19:29:24.688Z,6.63
2022-10-18T19:31:52.121Z,5.10
2022-10-18T19:34:19.469Z,6.80
2022-10-18T19:36:46.874Z,6.63
2022-10-18T19:39:23.183Z,6.17
2022-10-18T19:41:50.915Z,5.87
2022-10-18T19:44:21.138Z,5.50
2022-10-18T19:46:48.346Z,6.53
2022-10-18T19:49:15.828Z,7.50
2022-10-18T19:51:43.083Z,6.20
2022-10-18T19:54:13.412Z,5.50
2022-10-18T19:56:41.791Z,5.60
2022-10-18T19:59:08.935Z,6.97
2022-10-18T20:01:36.207Z,6.73
2022-10-18T20:04:04.524Z,5.50
2022-10-18T20:06:32.033Z,6.33
2022-10-18T20:08:59.223Z,5.57
2022-10-18T20:11:27.379Z,6.70
2022-10-18T20:13:54.631Z,6.10
2022-10-18T20:16:27.669Z,5.80
2022-10-18T20:18:56.815Z,5.63
2022-10-18T20:21:23.963Z,5.80
2022-10-18T20:23:51.055Z,5.73
2022-10-18T20:26:20.509Z,5.10
2022-10-18T20:28:48.935Z,7.10
2022-10-18T20:31:20.154Z,7.33
2022-10-18T20:33:47.590Z,6.00
2022-10-18T20:36:15.393Z,6.80
2022-10-18T20:38:42.865Z,6.20
2022-10-18T20:41:11.214Z,5.90
2022-10-18T20:43:38.427Z,6.17
2022-10-18T20:46:05.584Z,5.40
2022-10-18T20:48:32.975Z,5.13
2022-10-18T20:51:04.186Z,5.13
2022-10-18T20:53:31.285Z,6.00
2022-10-18T20:56:05.432Z,5.30
2022-10-18T20:58:32.723Z,6.00
2022-10-18T21:01:06.735Z,5.77
2022-10-18T21:03:34.019Z,5.43
2022-10-18T21:06:02.235Z,6.30
2022-10-18T21:08:29.441Z,6.10
2022-10-18T21:10:56.611Z,5.67
2022-10-18T21:13:23.799Z,6.00
2022-10-18T21:15:54.866Z,6.57
2022-10-18T21:18:23.981Z,5.97
2022-10-18T21:20:51.092Z,5.57
2022-10-18T21:23:18.226Z,5.90
2022-10-18T21:25:48.571Z,6.17
2022-10-18T21:28:16.282Z,6.43
2022-10-18T21:30:43.415Z,7.00
2022-10-18T21:33:10.737Z,7.00
2022-10-18T21:35:38.461Z,7.23
2022-10-18T21:38:06.017Z,6.63
2022-10-18T21:40:33.182Z,6.47
2022-10-18T21:43:00.354Z,6.17
2022-10-18T21:45:27.476Z,7.40
2022-10-18T21:47:54.677Z,7.53
2022-10-18T21:50:21.895Z,6.30
2022-10-18T21:52:49.246Z,6.93
2022-10-18T21:55:16.381Z,5.90
2022-10-18T21:57:43.660Z,6.60
2022-10-18T22:00:11.108Z,7.13
2022-10-18T22:02:38.240Z,6.40
2022-10-18T22:05:08.309Z,6.77
2022-10-18T22:07:38.416Z,5.97
2022-10-18T22:10:05.684Z,6.40
2022-10-18T22:12:32.801Z,5.70
2022-10-18T22:15:00.349Z,5.33
2022-10-18T22:17:27.450Z,6.80
2022-10-18T22:19:54.540Z,7.20
2022-10-18T22:22:21.681Z,6.67
2022-10-18T22:24:48.936Z,6.47
2022-10-18T22:27:16.045Z,6.23
2022-10-18T22:29:43.134Z,6.50
2022-10-18T22:32:10.241Z,6.30
2022-10-18T22:34:37.347Z,6.30
2022-10-18T22:37:04.444Z,7.40
2022-10-18T22:39:31.511Z,7.67
2022-10-18T22:41:58.621Z,6.80
2022-10-18T22:44:25.984Z,6.10
2022-10-18T22:46:53.085Z,6.67
2022-10-18T22:49:20.207Z,7.13
2022-10-18T22:51:47.297Z,7.30
2022-10-18T22:54:14.397Z,6.37
2022-10-18T22:56:41.528Z,6.20
2022-10-18T22:59:08.616Z,7.07
2022-10-18T23:01:35.721Z,6.53
2022-10-18T23:04:03.661Z,8.07
2022-10-18T23:06:31.734Z,7.77
2022-10-18T23:08:59.502Z,6.90
2022-10-18T23:11:26.707Z,6.97
2022-10-18T23:13:53.847Z,6.93
2022-10-18T23:16:21.088Z,6.13
2022-10-18T23:18:51.872Z,6.90
2022-10-18T23:21:19.167Z,6.90
2022-10-18T23:23:46.275Z,6.93
2022-10-18T23:26:14.183Z,6.53
2022-10-18T23:28:42.066Z,7.27
2022-10-18T23:31:09.564Z,9.07
2022-10-18T23:33:36.750Z,8.10
2022-10-18T23:36:03.988Z,7.20
2022-10-18T23:38:31.368Z,7.03
2022-10-18T23:40:58.472Z,6.80
2022-10-18T23:43:25.568Z,8.00
2022-10-18T23:45:52.654Z,6.67
2022-10-18T23:48:19.786Z,7.73
2022-10-18T23:50:46.861Z,6.90
2022-10-18T23:53:13.959Z,7.27
2022-10-18T23:55:41.293Z,7.50
2022-10-18T23:58:08.440Z,7.97
